Time;durP1;ratioP1;P1;durP2;ratioP2;P2;SDS_P1;SDS_P2;PMS_P1;PMS_P2;Temp;Humidity;BMP_temperature;BMP_pressure;BME280_temperature;BME280_humidity;BME280_pressure;Samples;Min_cycle;Max_cycle;Signal;HPM_P1;HPM_P2
2023/04/20 00:00:16;;;;;;;3.50;3.20;;;17.00;46.10;;;;;;5055807;28;20301;-83
2023/04/20 00:02:45;;;;;;;4.38;3.22;;;17.00;46.00;;;;;;5039942;28;20215;-83
2023/04/20 00:05:14;;;;;;;3.70;3.28;;;17.00;46.00;;;;;;5057135;28;20225;-83
2023/04/20 00:07:41;;;;;;;3.50;3.13;;;17.00;46.10;;;;;;5055988;28;20232;-83
2023/04/20 00:10:09;;;;;;;3.10;2.80;;;16.90;45.80;;;;;;5039513;28;20195;-83
2023/04/20 00:12:37;;;;;;;3.58;3.20;;;16.90;46.00;;;;;;5055547;28;20299;-83
2023/04/20 00:15:05;;;;;;;4.35;3.22;;;16.90;46.00;;;;;;5057464;28;20203;-83
2023/04/20 00:17:32;;;;;;;4.47;3.25;;;16.90;46.10;;;;;;5057377;28;20264;-83
2023/04/20 00:19:59;;;;;;;4.03;3.13;;;16.90;46.10;;;;;;5056268;28;20202;-83
2023/04/20 00:22:29;;;;;;;4.28;2.85;;;16.90;46.00;;;;;;5056027;28;20222;-84
2023/04/20 00:24:56;;;;;;;4.03;3.17;;;16.90;46.00;;;;;;5056554;28;20195;-84
2023/04/20 00:27:24;;;;;;;3.63;3.33;;;16.80;46.00;;;;;;5056756;28;20210;-83
2023/04/20 00:29:51;;;;;;;3.63;3.20;;;16.80;45.90;;;;;;5056361;28;20199;-83
2023/04/20 00:32:18;;;;;;;3.40;3.10;;;16.80;46.00;;;;;;5039361;28;20240;-83
2023/04/20 00:34:48;;;;;;;3.40;3.10;;;16.80;46.00;;;;;;5055814;28;20654;-83
2023/04/20 00:37:16;;;;;;;3.30;3.00;;;16.80;46.10;;;;;;5057265;28;20205;-83
2023/04/20 00:39:45;;;;;;;3.78;3.30;;;16.80;46.00;;;;;;5054402;28;20199;-83
2023/04/20 00:42:12;;;;;;;4.18;3.00;;;16.80;46.10;;;;;;5057347;28;20215;-84
2023/04/20 00:44:39;;;;;;;3.42;3.13;;;16.70;46.10;;;;;;5057305;28;20218;-84
2023/04/20 00:47:06;;;;;;;3.55;3.25;;;16.70;46.00;;;;;;5056871;28;20203;-84
2023/04/20 00:49:33;;;;;;;3.20;2.90;;;16.70;46.10;;;;;;5056792;28;20245;-84
2023/04/20 00:52:01;;;;;;;3.58;3.28;;;16.70;46.70;;;;;;5056898;28;20194;-84
2023/04/20 00:54:29;;;;;;;3.47;3.17;;;16.60;46.00;;;;;;5057883;28;20213;-83
2023/04/20 00:56:58;;;;;;;4.28;3.20;;;16.60;46.00;;;;;;5060745;28;20194;-83
2023/04/20 00:59:26;;;;;;;3.40;3.10;;;16.60;46.00;;;;;;5061040;28;20199;-83
2023/04/20 01:01:53;;;;;;;3.35;2.85;;;16.60;46.00;;;;;;5060485;28;20608;-83
2023/04/20 01:04:20;;;;;;;4.15;3.53;;;16.60;46.00;;;;;;5061028;28;20260;-83
2023/04/20 01:06:47;;;;;;;3.60;3.30;;;16.60;46.00;;;;;;5060047;28;20202;-83
2023/04/20 01:09:14;;;;;;;3.60;3.30;;;16.60;46.20;;;;;;5060109;28;20198;-83
2023/04/20 01:11:42;;;;;;;4.32;2.95;;;16.60;46.10;;;;;;5059868;28;20280;-83
2023/04/20 01:14:10;;;;;;;3.30;3.00;;;16.60;46.10;;;;;;5060213;28;20228;-83
2023/04/20 01:16:37;;;;;;;3.53;3.22;;;16.60;46.00;;;;;;5060355;28;20198;-83
2023/04/20 01:19:04;;;;;;;4.03;3.00;;;16.50;45.90;;;;;;5060285;28;20199;-83
2023/04/20 01:21:33;;;;;;;3.90;3.20;;;16.50;45.90;;;;;;5059311;28;20221;-83
2023/04/20 01:24:01;;;;;;;3.50;3.20;;;16.50;45.90;;;;;;5076989;28;20211;-83
2023/04/20 01:26:29;;;;;;;3.20;2.90;;;16.50;46.00;;;;;;5059175;28;20199;-83
2023/04/20 01:28:56;;;;;;;3.47;3.17;;;16.50;46.00;;;;;;5058860;28;20260;-83
2023/04/20 01:31:23;;;;;;;3.75;2.97;;;16.50;46.50;;;;;;5059224;28;20657;-83
2023/04/20 01:33:50;;;;;;;3.95;3.10;;;16.50;46.00;;;;;;5059129;28;20298;-83
2023/04/20 01:36:21;;;;;;;3.35;3.05;;;16.50;46.00;;;;;;5059426;28;20209;-83
2023/04/20 01:38:48;;;;;;;3.15;2.85;;;16.40;45.90;;;;;;5059703;28;20229;-83
2023/04/20 01:41:16;;;;;;;3.13;2.83;;;16.40;45.90;;;;;;5059339;28;20194;-83
2023/04/20 01:43:43;;;;;;;3.33;3.05;;;16.50;46.00;;;;;;5059852;28;20223;-83
2023/04/20 01:46:12;;;;;;;3.17;2.88;;;16.40;45.90;;;;;;5059355;28;20256;-83
2023/04/20 01:48:40;;;;;;;3.15;2.95;;;16.40;46.00;;;;;;5059254;28;20287;-83
2023/04/20 01:51:08;;;;;;;3.95;3.00;;;16.40;46.00;;;;;;5059432;28;20191;-83
2023/04/20 01:53:35;;;;;;;3.30;3.00;;;16.40;45.90;;;;;;5059237;28;20218;-83
2023/04/20 01:56:02;;;;;;;2.88;2.67;;;16.40;45.90;;;;;;5059047;28;20206;-83
2023/04/20 01:58:30;;;;;;;3.15;2.88;;;16.40;45.90;;;;;;5058715;28;20575;-83
2023/04/20 02:00:57;;;;;;;3.40;3.10;;;16.30;45.80;;;;;;5059805;28;20195;-83
2023/04/20 02:03:26;;;;;;;3.40;3.08;;;16.30;45.80;;;;;;5058577;28;20305;-83
2023/04/20 02:05:54;;;;;;;3.25;2.88;;;16.40;45.90;;;;;;5058053;28;20252;-83
2023/04/20 02:08:21;;;;;;;2.92;2.63;;;16.30;45.90;;;;;;5059113;28;20199;-83
2023/04/20 02:10:49;;;;;;;3.30;2.92;;;16.30;45.90;;;;;;5058866;28;20203;-83
2023/04/20 02:13:16;;;;;;;3.35;2.90;;;16.30;45.90;;;;;;5058227;28;20257;-83
2023/04/20 02:15:46;;;;;;;3.00;2.70;;;16.30;46.00;;;;;;5058363;28;20199;-83
2023/04/20 02:18:15;;;;;;;3.42;2.90;;;16.30;45.80;;;;;;5058049;28;20522;-83
2023/04/20 02:20:42;;;;;;;3.78;2.80;;;16.30;45.90;;;;;;5057611;28;20205;-83
2023/04/20 02:23:09;;;;;;;3.15;2.88;;;16.20;45.90;;;;;;5057754;28;20250;-83
2023/04/20 02:25:36;;;;;;;3.30;3.00;;;16.30;46.00;;;;;;5057752;28;20199;-83
2023/04/20 02:28:04;;;;;;;3.30;2.80;;;16.30;46.00;;;;;;5041695;28;20198;-83
2023/04/20 02:30:31;;;;;;;2.83;2.63;;;16.20;46.00;;;;;;5041202;28;20206;-83
2023/04/20 02:33:00;;;;;;;3.10;2.80;;;16.20;45.80;;;;;;5058174;28;20225;-83
2023/04/20 02:35:27;;;;;;;3.03;2.58;;;16.20;45.90;;;;;;5058252;28;20264;-83
2023/04/20 02:37:54;;;;;;;3.47;2.63;;;16.20;46.00;;;;;;5057624;28;20252;-83
2023/04/20 02:40:22;;;;;;;3.00;2.70;;;16.20;46.10;;;;;;5059113;28;20226;-83
2023/04/20 02:42:49;;;;;;;3.10;2.80;;;16.20;46.10;;;;;;5060607;28;20332;-83
2023/04/20 02:45:19;;;;;;;3.45;3.15;;;16.10;46.10;;;;;;5044538;28;20206;-83
2023/04/20 02:47:47;;;;;;;3.92;2.70;;;16.10;46.60;;;;;;5059211;28;20646;-84
2023/04/20 02:50:16;;;;;;;3.10;2.75;;;16.10;46.10;;;;;;5042292;28;20603;-84
2023/04/20 02:52:59;;;;;;;2.85;2.65;;;16.10;46.20;;;;;;5058896;28;20272;-84
2023/04/20 02:55:27;;;;;;;3.03;2.75;;;16.00;46.00;;;;;;5058239;28;20214;-83
2023/04/20 02:57:58;;;;;;;3.58;3.28;;;16.00;46.00;;;;;;5059216;28;20551;-83
2023/04/20 03:00:39;;;;;;;3.47;3.15;;;16.00;46.00;;;;;;5058604;28;20692;-83
2023/04/20 03:03:09;;;;;;;2.70;2.50;;;16.00;46.00;;;;;;5057671;28;20219;-83
2023/04/20 03:05:38;;;;;;;3.10;2.80;;;16.00;46.00;;;;;;5057626;28;20703;-83
2023/04/20 03:08:06;;;;;;;3.03;2.70;;;16.10;46.00;;;;;;5057621;28;20215;-83
2023/04/20 03:10:33;;;;;;;2.83;2.38;;;16.00;45.90;;;;;;5058022;28;20202;-83
2023/04/20 03:13:10;;;;;;;2.85;2.65;;;16.00;45.90;;;;;;5043023;28;20222;-83
2023/04/20 03:15:53;;;;;;;3.15;2.85;;;16.00;46.00;;;;;;5043886;28;20343;-83
2023/04/20 03:18:31;;;;;;;2.60;2.40;;;16.00;46.10;;;;;;5058361;28;20282;-83
2023/04/20 03:21:00;;;;;;;2.85;2.65;;;16.00;46.10;;;;;;5058686;28;20195;-83
2023/04/20 03:23:31;;;;;;;2.80;2.60;;;16.00;46.20;;;;;;5056670;28;20207;-83
2023/04/20 03:26:00;;;;;;;2.83;2.50;;;16.00;46.30;;;;;;5056766;28;20203;-83
2023/04/20 03:28:37;;;;;;;3.22;2.85;;;16.00;46.40;;;;;;5057114;28;20222;-83
2023/04/20 03:31:05;;;;;;;3.13;2.75;;;16.00;46.20;;;;;;5057025;28;20244;-83
2023/04/20 03:33:33;;;;;;;3.20;2.88;;;16.00;46.30;;;;;;5040928;28;20211;-83
2023/04/20 03:36:04;;;;;;;3.30;2.83;;;16.00;46.20;;;;;;5041001;28;20208;-83
2023/04/20 03:38:31;;;;;;;3.05;2.72;;;16.00;46.70;;;;;;5057164;28;20687;-83
2023/04/20 03:40:59;;;;;;;3.30;3.00;;;16.00;46.50;;;;;;5041059;28;20226;-83
2023/04/20 03:43:27;;;;;;;3.05;2.80;;;16.00;46.50;;;;;;5057346;28;20218;-83
2023/04/20 03:45:55;;;;;;;3.95;2.90;;;16.00;46.30;;;;;;5040687;28;20203;-83
2023/04/20 03:48:22;;;;;;;3.05;2.75;;;16.00;46.30;;;;;;5057264;28;20669;-83
2023/04/20 03:50:50;;;;;;;3.50;2.80;;;16.00;46.20;;;;;;5057445;28;20245;-83
2023/04/20 03:53:19;;;;;;;2.92;2.72;;;16.00;46.20;;;;;;5058032;28;20305;-83
2023/04/20 03:55:46;;;;;;;3.40;2.65;;;16.00;45.80;;;;;;5057330;28;20187;-83
2023/04/20 03:58:19;;;;;;;3.55;2.90;;;16.00;45.80;;;;;;5042068;28;20249;-83
2023/04/20 04:01:12;;;;;;;3.00;2.80;;;16.10;45.70;;;;;;5074835;28;20269;-83
2023/04/20 04:03:43;;;;;;;2.88;2.60;;;16.00;45.60;;;;;;5058968;28;20221;-83
2023/04/20 04:06:12;;;;;;;3.17;2.88;;;16.10;45.60;;;;;;5060475;28;20264;-83
2023/04/20 04:08:42;;;;;;;3.08;2.70;;;16.10;45.50;;;;;;5061284;28;20203;-82
2023/04/20 04:11:09;;;;;;;3.17;2.88;;;16.10;45.60;;;;;;5060691;28;20203;-82
2023/04/20 04:13:36;;;;;;;3.33;2.72;;;16.10;45.60;;;;;;5059155;28;20642;-83
2023/04/20 04:16:06;;;;;;;3.50;3.20;;;16.10;45.60;;;;;;5041906;28;20252;-83
2023/04/20 04:18:34;;;;;;;3.22;2.92;;;16.10;45.60;;;;;;5059231;28;20198;-83
2023/04/20 04:21:09;;;;;;;3.22;2.88;;;16.10;45.50;;;;;;5044818;28;20203;-83
2023/04/20 04:23:37;;;;;;;3.10;2.83;;;16.10;45.50;;;;;;5061495;28;20241;-83
2023/04/20 04:26:14;;;;;;;3.72;2.88;;;16.00;45.50;;;;;;5047018;28;20228;-83
2023/04/20 04:28:45;;;;;;;3.10;2.90;;;16.10;45.70;;;;;;5061367;28;20557;-83
2023/04/20 04:31:18;;;;;;;3.08;2.63;;;16.10;45.60;;;;;;5063138;28;20202;-83
2023/04/20 04:33:45;;;;;;;3.30;3.00;;;16.00;45.50;;;;;;5046900;28;20583;-83
2023/04/20 04:36:17;;;;;;;2.90;2.70;;;16.10;46.30;;;;;;5063101;28;20186;-83
2023/04/20 04:38:44;;;;;;;3.97;2.80;;;16.10;45.60;;;;;;5062810;28;20233;-83
2023/04/20 04:41:15;;;;;;;3.17;2.88;;;16.00;45.40;;;;;;5064030;28;20605;-83
2023/04/20 04:43:44;;;;;;;3.13;2.83;;;16.10;45.40;;;;;;5062460;28;20275;-83
2023/04/20 04:46:21;;;;;;;3.25;3.03;;;16.10;45.40;;;;;;5060086;28;20190;-83
2023/04/20 04:48:48;;;;;;;2.97;2.67;;;16.10;45.40;;;;;;5060009;28;20260;-83
2023/04/20 04:51:16;;;;;;;3.42;2.92;;;16.00;45.30;;;;;;5059867;28;20641;-83
2023/04/20 04:53:44;;;;;;;3.35;3.00;;;16.10;45.60;;;;;;5059498;28;20267;-83
2023/04/20 04:56:12;;;;;;;3.10;2.80;;;16.10;45.60;;;;;;5059572;28;20286;-83
2023/04/20 04:58:40;;;;;;;3.33;3.00;;;16.10;45.30;;;;;;5060264;28;20194;-85
2023/04/20 05:01:07;;;;;;;2.95;2.75;;;16.20;45.40;;;;;;5059468;28;20517;-84
2023/04/20 05:03:35;;;;;;;2.80;2.60;;;16.20;45.30;;;;;;5043077;28;20218;-85
2023/04/20 05:06:02;;;;;;;3.53;3.22;;;16.20;45.40;;;;;;5059660;28;20210;-81
2023/04/20 05:08:30;;;;;;;3.85;3.08;;;16.20;45.30;;;;;;5059371;28;20195;-84
2023/04/20 05:10:57;;;;;;;3.20;2.90;;;16.30;45.20;;;;;;5059851;28;20198;-83
2023/04/20 05:13:24;;;;;;;3.78;2.85;;;16.40;45.80;;;;;;5059656;28;20253;-83
2023/04/20 05:15:53;;;;;;;3.13;2.83;;;16.50;44.90;;;;;;5077810;28;20491;-83
2023/04/20 05:18:20;;;;;;;3.10;2.80;;;16.60;44.50;;;;;;5060580;28;20195;-82
2023/04/20 05:20:47;;;;;;;3.72;2.95;;;16.60;45.30;;;;;;5078161;28;20274;-84
2023/04/20 05:23:14;;;;;;;3.15;2.60;;;16.70;45.30;;;;;;5060322;28;20225;-84
2023/04/20 05:25:42;;;;;;;3.25;2.95;;;16.70;45.10;;;;;;5042999;28;20224;-84
2023/04/20 05:28:09;;;;;;;4.07;3.08;;;16.80;45.30;;;;;;5060391;28;20199;-84
2023/04/20 05:30:36;;;;;;;3.67;3.25;;;16.90;45.60;;;;;;5059790;28;20237;-83
2023/04/20 05:33:04;;;;;;;3.55;3.10;;;17.00;45.60;;;;;;5059638;28;20222;-83
2023/04/20 05:35:32;;;;;;;3.95;2.92;;;17.00;45.20;;;;;;5059683;28;20195;-83
2023/04/20 05:38:01;;;;;;;3.20;2.90;;;17.10;45.50;;;;;;5059016;28;20526;-83
2023/04/20 05:40:28;;;;;;;3.72;2.78;;;17.20;45.20;;;;;;5058657;28;20202;-84
2023/04/20 05:42:55;;;;;;;3.92;2.70;;;17.30;45.80;;;;;;5059496;28;20226;-84
2023/04/20 05:45:22;;;;;;;3.10;2.80;;;17.60;44.90;;;;;;5058555;28;20214;-84
2023/04/20 05:47:53;;;;;;;2.65;2.42;;;17.80;44.70;;;;;;5058831;28;20226;-84
2023/04/20 05:50:22;;;;;;;3.38;3.08;;;18.00;44.40;;;;;;5058305;28;20669;-83
2023/04/20 05:52:50;;;;;;;3.22;2.70;;;18.30;44.30;;;;;;5077403;28;20214;-78
2023/04/20 05:55:16;;;;;;;3.75;3.15;;;18.40;43.70;;;;;;5058226;28;20191;-78
2023/04/20 05:57:44;;;;;;;3.72;2.88;;;18.60;43.80;;;;;;5059287;28;20634;-78
2023/04/20 06:00:12;;;;;;;3.00;2.72;;;18.70;43.30;;;;;;5060056;28;20202;-80
2023/04/20 06:02:42;;;;;;;2.92;2.72;;;18.80;42.90;;;;;;5076544;28;20206;-79
2023/04/20 06:05:10;;;;;;;3.40;3.10;;;19.00;42.70;;;;;;5059388;28;20297;-79
2023/04/20 06:07:39;;;;;;;3.47;2.85;;;19.20;42.50;;;;;;5058225;28;20199;-79
2023/04/20 06:10:07;;;;;;;3.88;3.15;;;19.30;42.20;;;;;;5058124;28;20210;-80
2023/04/20 06:12:34;;;;;;;3.40;2.85;;;19.40;42.10;;;;;;5057716;28;20325;-80
2023/04/20 06:15:03;;;;;;;3.50;2.95;;;19.50;41.70;;;;;;5058070;28;20194;-80
2023/04/20 06:17:30;;;;;;;3.75;3.00;;;19.70;41.60;;;;;;5058028;28;20230;-80
2023/04/20 06:19:57;;;;;;;4.15;3.00;;;19.80;41.50;;;;;;5057782;28;20229;-81
2023/04/20 06:22:24;;;;;;;4.60;3.45;;;19.90;41.20;;;;;;5057940;28;20229;-81
2023/04/20 06:24:53;;;;;;;4.20;3.15;;;20.00;41.20;;;;;;5058452;28;20214;-78
2023/04/20 06:27:20;;;;;;;4.32;3.42;;;20.10;40.70;;;;;;5057821;28;20202;-78
2023/04/20 06:29:47;;;;;;;3.20;2.88;;;20.20;40.80;;;;;;5057658;28;20256;-78
2023/04/20 06:32:14;;;;;;;4.88;3.25;;;20.40;40.70;;;;;;5057586;28;20222;-78
2023/04/20 06:34:42;;;;;;;3.10;2.83;;;20.50;40.60;;;;;;5058297;28;20191;-78
2023/04/20 06:37:09;;;;;;;4.43;3.60;;;20.60;40.40;;;;;;5058426;28;20256;-78
2023/04/20 06:39:37;;;;;;;3.53;3.22;;;20.60;40.30;;;;;;5057948;28;20202;-78
2023/04/20 06:42:07;;;;;;;3.90;3.60;;;20.70;40.00;;;;;;5057489;28;20199;-78
2023/04/20 06:44:34;;;;;;;3.30;2.83;;;20.80;40.00;;;;;;5058281;28;20213;-78
2023/04/20 06:47:01;;;;;;;3.60;3.30;;;20.90;40.70;;;;;;5058585;28;20216;-78
2023/04/20 06:49:36;;;;;;;3.40;3.10;;;20.90;39.70;;;;;;5057573;28;20210;-78
2023/04/20 06:52:03;;;;;;;3.35;2.90;;;21.10;39.70;;;;;;5057058;28;20194;-78
2023/04/20 06:54:31;;;;;;;3.10;2.80;;;21.10;39.60;;;;;;5057264;28;20198;-78
2023/04/20 06:56:58;;;;;;;3.35;3.05;;;21.20;39.50;;;;;;5056975;28;20199;-78
2023/04/20 06:59:27;;;;;;;3.17;2.90;;;21.20;39.40;;;;;;5074742;28;20191;-78
2023/04/20 07:01:54;;;;;;;3.40;3.20;;;21.30;39.30;;;;;;5056605;28;20641;-78
2023/04/20 07:04:22;;;;;;;3.40;3.10;;;21.40;39.20;;;;;;5056571;28;20199;-78
2023/04/20 07:06:50;;;;;;;3.60;3.17;;;21.40;39.10;;;;;;5056718;28;20206;-78
2023/04/20 07:09:18;;;;;;;3.25;2.95;;;21.50;39.60;;;;;;5056488;28;20202;-78
2023/04/20 07:11:45;;;;;;;3.35;3.05;;;21.50;38.90;;;;;;5056261;28;20206;-78
2023/04/20 07:14:12;;;;;;;4.43;3.38;;;21.50;39.00;;;;;;5056265;28;20820;-78
2023/04/20 07:16:40;;;;;;;4.28;3.05;;;21.40;39.20;;;;;;5056743;28;20198;-78
2023/04/20 07:19:08;;;;;;;3.60;3.10;;;21.30;39.30;;;;;;5056410;28;20669;-78
2023/04/20 07:21:35;;;;;;;3.50;3.03;;;21.30;39.40;;;;;;5056577;28;20206;-78
2023/04/20 07:24:02;;;;;;;3.00;2.80;;;21.20;39.40;;;;;;5056149;28;20249;-78
2023/04/20 07:26:29;;;;;;;3.50;3.20;;;21.20;39.50;;;;;;5056364;28;20313;-78
2023/04/20 07:28:56;;;;;;;3.55;2.85;;;21.10;39.50;;;;;;5056132;28;20199;-78
2023/04/20 07:31:23;;;;;;;3.13;2.83;;;21.00;39.40;;;;;;5056448;28;20198;-78
2023/04/20 07:33:51;;;;;;;4.32;3.50;;;21.00;39.50;;;;;;5074172;28;20625;-78
2023/04/20 07:36:21;;;;;;;3.40;3.10;;;21.00;39.70;;;;;;5056247;28;20565;-78
2023/04/20 07:38:48;;;;;;;3.70;2.90;;;20.90;39.80;;;;;;5040347;28;20202;-78
2023/04/20 07:41:15;;;;;;;3.33;3.00;;;20.90;39.70;;;;;;5056098;28;20194;-78
2023/04/20 07:43:43;;;;;;;4.00;3.10;;;20.80;39.70;;;;;;5056456;28;20261;-78
2023/04/20 07:46:10;;;;;;;3.78;3.13;;;20.80;39.70;;;;;;5057525;28;20310;-78
2023/04/20 07:48:37;;;;;;;3.30;3.00;;;20.70;39.70;;;;;;5058236;28;20298;-78
2023/04/20 07:51:06;;;;;;;4.40;3.15;;;20.70;39.90;;;;;;5056174;28;20206;-78
2023/04/20 07:53:34;;;;;;;3.10;2.80;;;20.60;39.90;;;;;;5056048;28;20268;-78
2023/04/20 07:56:01;;;;;;;3.00;2.80;;;20.60;39.70;;;;;;5056166;28;20196;-78
2023/04/20 07:58:28;;;;;;;3.35;2.90;;;20.60;39.80;;;;;;5056582;28;20197;-78
2023/04/20 08:00:55;;;;;;;3.40;3.10;;;20.50;39.60;;;;;;5056414;28;20205;-78
2023/04/20 08:03:23;;;;;;;4.00;3.03;;;20.60;39.70;;;;;;5056301;28;20297;-78
2023/04/20 08:05:50;;;;;;;3.38;3.08;;;20.50;39.50;;;;;;5060112;28;20220;-78
2023/04/20 08:08:19;;;;;;;3.40;3.10;;;20.40;39.50;;;;;;5060562;28;20724;-78
2023/04/20 08:10:46;;;;;;;3.55;3.25;;;20.40;39.50;;;;;;5060142;28;20202;-78
2023/04/20 08:13:13;;;;;;;3.95;3.08;;;20.40;39.40;;;;;;5060819;28;20252;-78
2023/04/20 08:15:40;;;;;;;3.50;3.20;;;20.40;39.30;;;;;;5060627;28;20190;-78
2023/04/20 08:18:08;;;;;;;3.65;3.30;;;20.40;39.50;;;;;;5060117;28;20228;-77
2023/04/20 08:20:35;;;;;;;3.97;3.60;;;20.30;39.50;;;;;;5060214;28;20232;-78
2023/04/20 08:23:02;;;;;;;4.53;2.92;;;20.30;39.20;;;;;;5059944;28;20697;-78
2023/04/20 08:25:31;;;;;;;3.65;3.25;;;20.30;39.60;;;;;;5060573;28;20234;-78
2023/04/20 08:27:58;;;;;;;3.22;2.92;;;20.30;39.50;;;;;;5062949;28;20233;-78
2023/04/20 08:30:26;;;;;;;3.38;3.08;;;20.30;39.60;;;;;;5062350;28;20199;-78
2023/04/20 08:32:53;;;;;;;3.85;3.40;;;20.20;39.40;;;;;;5060441;28;20226;-78
2023/04/20 08:35:20;;;;;;;3.63;2.97;;;20.20;39.60;;;;;;5059903;28;20202;-78
2023/04/20 08:37:48;;;;;;;3.40;3.10;;;20.10;39.40;;;;;;5043089;28;20251;-78
2023/04/20 08:40:16;;;;;;;3.22;2.92;;;20.10;39.40;;;;;;5043092;28;20744;-78
2023/04/20 08:42:45;;;;;;;3.60;3.30;;;20.00;39.50;;;;;;5059519;28;20225;-78
2023/04/20 08:45:12;;;;;;;3.90;3.10;;;20.00;39.60;;;;;;5059556;28;20676;-78
2023/04/20 08:47:39;;;;;;;4.28;3.38;;;20.00;39.40;;;;;;5059360;28;20237;-78
2023/04/20 08:50:08;;;;;;;4.22;3.67;;;19.90;39.40;;;;;;5059489;28;20739;-78
2023/04/20 08:52:38;;;;;;;4.15;3.25;;;19.90;39.70;;;;;;5059238;28;20232;-78
2023/04/20 08:55:06;;;;;;;3.63;3.33;;;19.90;39.70;;;;;;5059366;28;20202;-78
2023/04/20 08:57:33;;;;;;;3.65;3.35;;;19.90;39.70;;;;;;5042792;28;20612;-78
2023/04/20 09:00:06;;;;;;;3.60;3.28;;;19.80;39.50;;;;;;5059127;28;20199;-78
2023/04/20 09:02:33;;;;;;;3.42;3.13;;;19.80;39.80;;;;;;5077066;28;20218;-78
2023/04/20 09:05:01;;;;;;;3.83;2.92;;;19.80;39.60;;;;;;5056865;28;20687;-78
2023/04/20 09:07:28;;;;;;;3.85;3.55;;;19.80;39.70;;;;;;5058726;28;20699;-79
2023/04/20 09:09:56;;;;;;;4.22;3.50;;;19.90;39.80;;;;;;5060667;28;20195;-79
2023/04/20 09:12:24;;;;;;;3.90;3.50;;;19.80;39.80;;;;;;5042975;28;20233;-79
2023/04/20 09:14:51;;;;;;;4.10;3.67;;;19.80;39.90;;;;;;5058679;28;20201;-79
2023/04/20 09:17:31;;;;;;;3.63;3.22;;;19.80;40.00;;;;;;5058733;28;20195;-79
2023/04/20 09:19:58;;;;;;;3.63;3.33;;;19.80;40.00;;;;;;5058739;28;20255;-78
2023/04/20 09:22:32;;;;;;;3.40;3.10;;;19.80;40.20;;;;;;5058677;28;20243;-78
2023/04/20 09:24:59;;;;;;;3.50;3.20;;;19.80;40.10;;;;;;5058529;28;20285;-78
2023/04/20 09:27:26;;;;;;;5.07;3.80;;;19.70;40.20;;;;;;5058411;28;20218;-78
2023/04/20 09:29:58;;;;;;;4.40;3.63;;;19.70;40.10;;;;;;5058692;28;20198;-79
2023/04/20 09:32:27;;;;;;;4.28;3.40;;;19.70;40.30;;;;;;5025954;28;20242;-79
2023/04/20 09:34:55;;;;;;;3.70;3.25;;;19.70;40.40;;;;;;5058716;28;20194;-79
2023/04/20 09:37:22;;;;;;;3.50;3.20;;;19.60;40.10;;;;;;5059413;28;20195;-79
2023/04/20 09:39:50;;;;;;;3.63;3.33;;;19.60;40.40;;;;;;5058585;28;20194;-79
2023/04/20 09:42:17;;;;;;;3.20;2.90;;;19.60;40.50;;;;;;5041805;28;20218;-79
2023/04/20 09:44:45;;;;;;;3.58;3.28;;;19.60;40.10;;;;;;5058328;28;20198;-79
2023/04/20 09:47:17;;;;;;;3.33;3.03;;;19.60;40.50;;;;;;5058390;28;20222;-79
2023/04/20 09:49:46;;;;;;;3.92;3.45;;;19.60;40.50;;;;;;5059205;28;20206;-79
2023/04/20 09:52:16;;;;;;;3.58;3.28;;;19.50;40.50;;;;;;5057995;28;20222;-77
2023/04/20 09:54:44;;;;;;;3.55;3.25;;;19.50;40.60;;;;;;5041763;28;20187;-77
2023/04/20 09:57:12;;;;;;;3.28;2.80;;;19.40;40.40;;;;;;5058837;28;20199;-77
2023/04/20 09:59:39;;;;;;;3.53;3.22;;;19.40;40.30;;;;;;5058398;28;20657;-77
2023/04/20 10:02:08;;;;;;;3.60;3.30;;;19.40;40.50;;;;;;5058255;28;20209;-77
2023/04/20 10:04:35;;;;;;;3.83;3.17;;;19.40;40.50;;;;;;5058263;28;20218;-77
2023/04/20 10:07:05;;;;;;;4.25;3.30;;;19.40;40.70;;;;;;5058189;28;20219;-78
2023/04/20 10:09:33;;;;;;;3.58;3.28;;;19.40;40.60;;;;;;5058477;28;20285;-78
2023/04/20 10:12:07;;;;;;;3.47;3.17;;;19.30;40.40;;;;;;5058184;28;20297;-78
2023/04/20 10:14:35;;;;;;;4.10;3.60;;;19.30;40.50;;;;;;5058765;28;20293;-78
2023/04/20 10:17:03;;;;;;;3.90;3.42;;;19.30;40.60;;;;;;5059615;28;20195;-78
2023/04/20 10:19:38;;;;;;;3.70;3.40;;;19.40;40.70;;;;;;5066527;28;20187;-78
2023/04/20 10:22:07;;;;;;;4.38;3.80;;;19.40;40.80;;;;;;5061353;28;20202;-78
2023/04/20 10:24:34;;;;;;;3.47;3.17;;;19.30;40.50;;;;;;5058311;28;20191;-78
2023/04/20 10:27:02;;;;;;;3.85;3.47;;;19.20;40.60;;;;;;5074910;28;20264;-78
2023/04/20 10:29:30;;;;;;;4.55;4.15;;;19.20;40.90;;;;;;5057946;28;20252;-78
2023/04/20 10:31:57;;;;;;;3.80;3.30;;;19.10;41.20;;;;;;5057969;28;20199;-78
2023/04/20 10:34:31;;;;;;;3.83;3.45;;;19.10;41.40;;;;;;5057884;28;20194;-78
2023/04/20 10:37:09;;;;;;;4.47;3.50;;;19.10;41.50;;;;;;5057895;28;20622;-78
2023/04/20 10:39:37;;;;;;;3.42;3.13;;;19.10;41.60;;;;;;5058040;28;20197;-78
2023/04/20 10:42:04;;;;;;;3.83;3.42;;;19.20;41.50;;;;;;5057731;28;20203;-78
2023/04/20 10:44:34;;;;;;;3.20;2.92;;;19.20;41.60;;;;;;5075687;28;20195;-78
2023/04/20 10:47:01;;;;;;;4.20;3.28;;;19.20;41.60;;;;;;5057813;28;20673;-78
2023/04/20 10:49:29;;;;;;;4.20;3.80;;;19.20;41.60;;;;;;5057547;28;20568;-78
2023/04/20 10:51:56;;;;;;;3.60;2.85;;;19.20;41.50;;;;;;5057638;28;20202;-78
2023/04/20 10:54:25;;;;;;;3.38;3.05;;;19.30;41.70;;;;;;5058479;28;20202;-78
2023/04/20 10:56:53;;;;;;;3.30;3.03;;;19.30;41.80;;;;;;5057380;28;20199;-78
2023/04/20 10:59:22;;;;;;;3.10;2.80;;;19.30;41.70;;;;;;5057481;28;20661;-78
2023/04/20 11:01:49;;;;;;;3.83;3.40;;;19.30;41.70;;;;;;5057164;28;20199;-78
2023/04/20 11:04:16;;;;;;;3.30;3.00;;;19.30;41.70;;;;;;5056882;28;20195;-79
2023/04/20 11:06:45;;;;;;;3.33;3.03;;;19.30;41.60;;;;;;5057066;28;20268;-79
2023/04/20 11:09:18;;;;;;;4.80;2.72;;;19.30;41.60;;;;;;5056836;28;20203;-79
2023/04/20 11:11:46;;;;;;;3.28;2.97;;;19.30;41.60;;;;;;5056863;28;20210;-79
2023/04/20 11:14:14;;;;;;;3.33;3.13;;;19.20;41.60;;;;;;5056914;28;20256;-79
2023/04/20 11:16:51;;;;;;;3.20;2.90;;;19.30;41.60;;;;;;5057405;28;20285;-79
2023/04/20 11:19:28;;;;;;;3.20;2.90;;;19.30;41.70;;;;;;5056430;28;20559;-79
2023/04/20 11:21:56;;;;;;;3.75;2.90;;;19.30;41.70;;;;;;5040152;28;20266;-79
2023/04/20 11:24:23;;;;;;;3.40;3.10;;;19.30;41.80;;;;;;5056852;28;20198;-79
2023/04/20 11:26:53;;;;;;;3.40;3.10;;;19.30;41.80;;;;;;5056499;28;20223;-79
2023/04/20 11:29:28;;;;;;;3.55;3.25;;;19.30;42.00;;;;;;5056545;28;20206;-79
2023/04/20 11:31:55;;;;;;;3.28;2.97;;;19.30;42.10;;;;;;5056531;28;20198;-79
2023/04/20 11:34:22;;;;;;;3.35;3.00;;;19.30;42.20;;;;;;5056631;28;20191;-79
2023/04/20 11:36:50;;;;;;;3.45;3.15;;;19.30;42.00;;;;;;5056432;28;20237;-79
2023/04/20 11:39:23;;;;;;;3.30;3.00;;;19.30;42.00;;;;;;5040388;28;20278;-79
2023/04/20 11:41:51;;;;;;;3.90;3.38;;;19.30;41.80;;;;;;5056661;28;20191;-79
2023/04/20 11:44:19;;;;;;;3.47;3.17;;;19.30;42.00;;;;;;5056629;28;20543;-79
2023/04/20 11:46:48;;;;;;;3.70;3.40;;;19.30;42.10;;;;;;5056505;28;20218;-79
2023/04/20 11:49:16;;;;;;;3.33;3.03;;;19.30;42.00;;;;;;5056844;28;20195;-79
2023/04/20 11:51:43;;;;;;;3.50;3.20;;;19.30;41.70;;;;;;5056476;28;20628;-79
2023/04/20 11:54:10;;;;;;;3.92;3.50;;;19.30;41.90;;;;;;5056241;28;20206;-79
2023/04/20 11:56:37;;;;;;;3.30;3.00;;;19.30;41.70;;;;;;5056061;28;20197;-79
2023/04/20 11:59:06;;;;;;;3.72;3.40;;;19.30;41.80;;;;;;5056031;28;20199;-79
2023/04/20 12:01:33;;;;;;;3.22;2.92;;;19.30;41.90;;;;;;5039518;28;20191;-79
2023/04/20 12:04:01;;;;;;;3.72;3.40;;;19.20;41.80;;;;;;5056108;28;20631;-79
2023/04/20 12:06:28;;;;;;;3.63;3.33;;;19.20;41.80;;;;;;5039913;28;20272;-79
2023/04/20 12:08:56;;;;;;;3.58;3.28;;;19.20;41.70;;;;;;5056072;28;20230;-79
2023/04/20 12:11:22;;;;;;;3.63;3.30;;;19.20;42.00;;;;;;5056768;28;20234;-79
2023/04/20 12:13:50;;;;;;;3.67;3.38;;;19.20;42.10;;;;;;5055321;28;20313;-79
2023/04/20 12:16:18;;;;;;;3.20;3.00;;;19.20;42.00;;;;;;5056277;28;20195;-79
2023/04/20 12:18:46;;;;;;;3.38;3.08;;;19.20;42.00;;;;;;5074825;28;20191;-79
2023/04/20 12:21:13;;;;;;;3.10;2.88;;;19.20;42.20;;;;;;5056816;28;20210;-79
2023/04/20 12:23:41;;;;;;;3.13;2.85;;;19.10;41.90;;;;;;5056501;28;20219;-79
2023/04/20 12:26:08;;;;;;;2.90;2.70;;;19.10;41.80;;;;;;5056920;28;20206;-79
2023/04/20 12:28:35;;;;;;;3.00;2.80;;;19.10;41.90;;;;;;5056189;28;20719;-79
2023/04/20 12:31:02;;;;;;;2.80;2.60;;;19.10;41.60;;;;;;5056028;28;20206;-79
2023/04/20 12:33:31;;;;;;;3.10;2.90;;;19.10;42.40;;;;;;5055714;28;20219;-79
2023/04/20 12:35:58;;;;;;;3.22;2.92;;;19.10;41.90;;;;;;5039657;28;20563;-79
2023/04/20 12:38:26;;;;;;;3.13;2.90;;;19.10;41.90;;;;;;5056044;28;20199;-79
2023/04/20 12:40:53;;;;;;;3.50;3.20;;;19.10;41.90;;;;;;5056161;28;20684;-79
2023/04/20 12:43:20;;;;;;;3.47;3.17;;;19.10;42.00;;;;;;5055929;28;20219;-79
2023/04/20 12:45:47;;;;;;;3.35;3.05;;;19.10;41.80;;;;;;5040418;28;20198;-79
2023/04/20 12:48:15;;;;;;;3.42;3.10;;;19.10;41.80;;;;;;5056092;28;20219;-79
2023/04/20 12:50:44;;;;;;;3.08;2.88;;;19.10;42.10;;;;;;5058320;28;20264;-79
2023/04/20 12:53:11;;;;;;;4.22;3.53;;;19.10;42.00;;;;;;5060916;28;20222;-79